sensor_id;sensor_type;location;lat;lon;timestamp;P1;durP1;ratioP1;P2;durP2;ratioP2
2658;SDS011;1339;53.304;10.406;2023-04-23T00:01:31;5.73;;;5.20;;
2658;SDS011;1339;53.304;10.406;2023-04-23T00:04:00;5.20;;;4.80;;
2658;SDS011;1339;53.304;10.406;2023-04-23T00:06:28;5.33;;;4.93;;
2658;SDS011;1339;53.304;10.406;2023-04-23T00:08:56;5.00;;;4.57;;
2658;SDS011;1339;53.304;10.406;2023-04-23T00:11:25;4.33;;;4.03;;
2658;SDS011;1339;53.304;10.406;2023-04-23T00:13:53;5.40;;;5.00;;
2658;SDS011;1339;53.304;10.406;2023-04-23T00:16:20;4.60;;;4.20;;
2658;SDS011;1339;53.304;10.406;2023-04-23T00:18:48;4.60;;;4.30;;
2658;SDS011;1339;53.304;10.406;2023-04-23T00:21:16;5.07;;;4.60;;
2658;SDS011;1339;53.304;10.406;2023-04-23T00:23:43;6.73;;;4.60;;
2658;SDS011;1339;53.304;10.406;2023-04-23T00:26:10;5.77;;;5.33;;
2658;SDS011;1339;53.304;10.406;2023-04-23T00:28:37;4.67;;;4.30;;
2658;SDS011;1339;53.304;10.406;2023-04-23T00:31:04;4.67;;;4.30;;
2658;SDS011;1339;53.304;10.406;2023-04-23T00:33:31;6.77;;;4.90;;
2658;SDS011;1339;53.304;10.406;2023-04-23T00:35:58;6.80;;;4.67;;
2658;SDS011;1339;53.304;10.406;2023-04-23T00:38:26;5.23;;;4.73;;
2658;SDS011;1339;53.304;10.406;2023-04-23T00:40:53;5.80;;;5.20;;
2658;SDS011;1339;53.304;10.406;2023-04-23T00:43:20;5.33;;;4.83;;
2658;SDS011;1339;53.304;10.406;2023-04-23T00:45:48;6.90;;;4.70;;
2658;SDS011;1339;53.304;10.406;2023-04-23T00:48:15;5.13;;;4.77;;
2658;SDS011;1339;53.304;10.406;2023-04-23T00:50:42;5.87;;;5.40;;
2658;SDS011;1339;53.304;10.406;2023-04-23T00:53:08;5.60;;;4.63;;
2658;SDS011;1339;53.304;10.406;2023-04-23T00:55:37;5.53;;;5.03;;
2658;SDS011;1339;53.304;10.406;2023-04-23T00:58:04;5.80;;;5.30;;
2658;SDS011;1339;53.304;10.406;2023-04-23T01:00:31;5.27;;;4.87;;
2658;SDS011;1339;53.304;10.406;2023-04-23T01:02:59;5.67;;;5.10;;
2658;SDS011;1339;53.304;10.406;2023-04-23T01:05:26;5.90;;;5.40;;
2658;SDS011;1339;53.304;10.406;2023-04-23T01:07:53;5.27;;;4.87;;
2658;SDS011;1339;53.304;10.406;2023-04-23T01:10:21;6.20;;;5.60;;
2658;SDS011;1339;53.304;10.406;2023-04-23T01:12:50;6.10;;;5.50;;
2658;SDS011;1339;53.304;10.406;2023-04-23T01:15:17;5.60;;;5.10;;
2658;SDS011;1339;53.304;10.406;2023-04-23T01:17:44;7.20;;;6.60;;
2658;SDS011;1339;53.304;10.406;2023-04-23T01:20:11;5.13;;;4.40;;
2658;SDS011;1339;53.304;10.406;2023-04-23T01:22:39;7.23;;;5.23;;
2658;SDS011;1339;53.304;10.406;2023-04-23T01:25:06;6.43;;;5.83;;
2658;SDS011;1339;53.304;10.406;2023-04-23T01:27:34;5.57;;;5.07;;
2658;SDS011;1339;53.304;10.406;2023-04-23T01:30:01;5.67;;;5.17;;
2658;SDS011;1339;53.304;10.406;2023-04-23T01:32:30;5.13;;;4.73;;
2658;SDS011;1339;53.304;10.406;2023-04-23T01:34:57;5.30;;;4.90;;
2658;SDS011;1339;53.304;10.406;2023-04-23T01:37:24;6.83;;;5.70;;
2658;SDS011;1339;53.304;10.406;2023-04-23T01:39:53;7.40;;;6.60;;
2658;SDS011;1339;53.304;10.406;2023-04-23T01:42:20;6.07;;;5.60;;
2658;SDS011;1339;53.304;10.406;2023-04-23T01:44:47;6.17;;;5.67;;
2658;SDS011;1339;53.304;10.406;2023-04-23T01:47:15;6.90;;;5.37;;
2658;SDS011;1339;53.304;10.406;2023-04-23T01:49:42;7.83;;;6.10;;
2658;SDS011;1339;53.304;10.406;2023-04-23T01:52:09;5.83;;;5.30;;
2658;SDS011;1339;53.304;10.406;2023-04-23T01:54:36;5.80;;;5.30;;
2658;SDS011;1339;53.304;10.406;2023-04-23T01:57:04;7.40;;;6.70;;
2658;SDS011;1339;53.304;10.406;2023-04-23T01:59:31;6.50;;;5.90;;
2658;SDS011;1339;53.304;10.406;2023-04-23T02:01:58;7.10;;;6.50;;
2658;SDS011;1339;53.304;10.406;2023-04-23T02:04:25;6.63;;;6.03;;
2658;SDS011;1339;53.304;10.406;2023-04-23T02:06:52;5.20;;;4.80;;
2658;SDS011;1339;53.304;10.406;2023-04-23T02:09:19;6.60;;;6.00;;
2658;SDS011;1339;53.304;10.406;2023-04-23T02:11:46;9.83;;;5.90;;
2658;SDS011;1339;53.304;10.406;2023-04-23T02:14:14;6.37;;;5.77;;
2658;SDS011;1339;53.304;10.406;2023-04-23T02:16:41;7.80;;;7.00;;
2658;SDS011;1339;53.304;10.406;2023-04-23T02:19:09;8.97;;;7.60;;
2658;SDS011;1339;53.304;10.406;2023-04-23T02:21:36;7.93;;;7.23;;
2658;SDS011;1339;53.304;10.406;2023-04-23T02:24:03;9.10;;;8.17;;
2658;SDS011;1339;53.304;10.406;2023-04-23T02:26:31;9.67;;;8.80;;
2658;SDS011;1339;53.304;10.406;2023-04-23T02:28:57;9.27;;;8.47;;
2658;SDS011;1339;53.304;10.406;2023-04-23T02:31:26;10.30;;;9.40;;
2658;SDS011;1339;53.304;10.406;2023-04-23T02:33:53;11.40;;;10.40;;
2658;SDS011;1339;53.304;10.406;2023-04-23T02:36:19;10.13;;;9.20;;
2658;SDS011;1339;53.304;10.406;2023-04-23T02:38:47;11.83;;;10.83;;
2658;SDS011;1339;53.304;10.406;2023-04-23T02:41:15;11.03;;;9.93;;
2658;SDS011;1339;53.304;10.406;2023-04-23T02:43:42;11.93;;;10.83;;
2658;SDS011;1339;53.304;10.406;2023-04-23T02:46:09;11.70;;;10.60;;
2658;SDS011;1339;53.304;10.406;2023-04-23T02:48:38;12.07;;;11.00;;
2658;SDS011;1339;53.304;10.406;2023-04-23T02:51:05;11.47;;;10.47;;
2658;SDS011;1339;53.304;10.406;2023-04-23T02:53:32;12.13;;;10.97;;
2658;SDS011;1339;53.304;10.406;2023-04-23T02:56:00;11.40;;;10.40;;
2658;SDS011;1339;53.304;10.406;2023-04-23T02:58:27;11.83;;;10.73;;
2658;SDS011;1339;53.304;10.406;2023-04-23T03:00:54;12.40;;;11.20;;
2658;SDS011;1339;53.304;10.406;2023-04-23T03:03:21;11.70;;;10.73;;
2658;SDS011;1339;53.304;10.406;2023-04-23T03:05:51;11.53;;;10.43;;
2658;SDS011;1339;53.304;10.406;2023-04-23T03:08:18;13.30;;;11.93;;
2658;SDS011;1339;53.304;10.406;2023-04-23T03:10:45;13.50;;;12.20;;
2658;SDS011;1339;53.304;10.406;2023-04-23T03:13:12;14.30;;;13.13;;
2658;SDS011;1339;53.304;10.406;2023-04-23T03:15:39;13.37;;;12.17;;
2658;SDS011;1339;53.304;10.406;2023-04-23T03:18:06;13.50;;;12.17;;
2658;SDS011;1339;53.304;10.406;2023-04-23T03:20:33;14.73;;;13.23;;
2658;SDS011;1339;53.304;10.406;2023-04-23T03:23:02;13.57;;;12.47;;
2658;SDS011;1339;53.304;10.406;2023-04-23T03:25:30;15.93;;;14.43;;
2658;SDS011;1339;53.304;10.406;2023-04-23T03:27:57;23.27;;;20.80;;
2658;SDS011;1339;53.304;10.406;2023-04-23T03:30:24;27.57;;;24.67;;
2658;SDS011;1339;53.304;10.406;2023-04-23T03:32:51;25.73;;;22.70;;
2658;SDS011;1339;53.304;10.406;2023-04-23T03:35:18;29.77;;;26.00;;
2658;SDS011;1339;53.304;10.406;2023-04-23T03:37:45;29.93;;;26.83;;
2658;SDS011;1339;53.304;10.406;2023-04-23T03:40:14;30.07;;;25.50;;
2658;SDS011;1339;53.304;10.406;2023-04-23T03:42:40;31.85;;;26.55;;
2658;SDS011;1339;53.304;10.406;2023-04-23T03:45:08;30.50;;;27.40;;
2658;SDS011;1339;53.304;10.406;2023-04-23T03:47:35;35.17;;;28.15;;
2658;SDS011;1339;53.304;10.406;2023-04-23T03:50:02;32.70;;;27.73;;
2658;SDS011;1339;53.304;10.406;2023-04-23T03:52:30;34.28;;;30.85;;
2658;SDS011;1339;53.304;10.406;2023-04-23T03:54:57;33.78;;;30.17;;
2658;SDS011;1339;53.304;10.406;2023-04-23T03:57:25;34.72;;;30.90;;
2658;SDS011;1339;53.304;10.406;2023-04-23T03:59:52;33.75;;;30.05;;
2658;SDS011;1339;53.304;10.406;2023-04-23T04:02:19;34.17;;;28.98;;
2658;SDS011;1339;53.304;10.406;2023-04-23T04:04:46;32.53;;;28.63;;
2658;SDS011;1339;53.304;10.406;2023-04-23T04:07:15;36.30;;;29.52;;
2658;SDS011;1339;53.304;10.406;2023-04-23T04:09:42;34.60;;;30.83;;
2658;SDS011;1339;53.304;10.406;2023-04-23T04:12:10;34.10;;;30.05;;
2658;SDS011;1339;53.304;10.406;2023-04-23T04:14:39;33.95;;;29.15;;
2658;SDS011;1339;53.304;10.406;2023-04-23T04:17:06;36.47;;;28.05;;
2658;SDS011;1339;53.304;10.406;2023-04-23T04:19:33;33.10;;;27.48;;
2658;SDS011;1339;53.304;10.406;2023-04-23T04:22:00;34.97;;;27.00;;
2658;SDS011;1339;53.304;10.406;2023-04-23T04:24:27;34.03;;;27.15;;
2658;SDS011;1339;53.304;10.406;2023-04-23T04:26:56;31.50;;;28.23;;
2658;SDS011;1339;53.304;10.406;2023-04-23T04:29:23;34.63;;;26.60;;
2658;SDS011;1339;53.304;10.406;2023-04-23T04:31:52;30.90;;;27.60;;
2658;SDS011;1339;53.304;10.406;2023-04-23T04:34:19;29.90;;;26.70;;
2658;SDS011;1339;53.304;10.406;2023-04-23T04:36:46;31.42;;;28.15;;
2658;SDS011;1339;53.304;10.406;2023-04-23T04:39:13;31.67;;;26.52;;
2658;SDS011;1339;53.304;10.406;2023-04-23T04:41:40;37.50;;;29.27;;
2658;SDS011;1339;53.304;10.406;2023-04-23T04:44:07;33.50;;;29.33;;
2658;SDS011;1339;53.304;10.406;2023-04-23T04:46:34;32.33;;;28.70;;
2658;SDS011;1339;53.304;10.406;2023-04-23T04:49:06;31.15;;;27.85;;
2658;SDS011;1339;53.304;10.406;2023-04-23T04:51:33;31.02;;;27.67;;
2658;SDS011;1339;53.304;10.406;2023-04-23T04:54:00;34.00;;;30.40;;
2658;SDS011;1339;53.304;10.406;2023-04-23T04:56:27;37.05;;;30.88;;
2658;SDS011;1339;53.304;10.406;2023-04-23T04:58:54;33.97;;;30.27;;
2658;SDS011;1339;53.304;10.406;2023-04-23T05:01:21;39.38;;;33.67;;
2658;SDS011;1339;53.304;10.406;2023-04-23T05:03:50;38.67;;;33.40;;
2658;SDS011;1339;53.304;10.406;2023-04-23T05:06:18;43.30;;;34.05;;
2658;SDS011;1339;53.304;10.406;2023-04-23T05:08:45;39.08;;;30.90;;
2658;SDS011;1339;53.304;10.406;2023-04-23T05:11:12;41.35;;;29.73;;
2658;SDS011;1339;53.304;10.406;2023-04-23T05:13:40;36.78;;;31.52;;
2658;SDS011;1339;53.304;10.406;2023-04-23T05:16:07;39.78;;;28.10;;
2658;SDS011;1339;53.304;10.406;2023-04-23T05:18:34;42.00;;;26.17;;
2658;SDS011;1339;53.304;10.406;2023-04-23T05:21:01;31.92;;;24.05;;
2658;SDS011;1339;53.304;10.406;2023-04-23T05:23:30;29.83;;;22.52;;
2658;SDS011;1339;53.304;10.406;2023-04-23T05:25:57;31.58;;;23.70;;
2658;SDS011;1339;53.304;10.406;2023-04-23T05:28:23;29.00;;;22.42;;
2658;SDS011;1339;53.304;10.406;2023-04-23T05:30:50;28.17;;;23.13;;
2658;SDS011;1339;53.304;10.406;2023-04-23T05:33:17;29.25;;;23.02;;
2658;SDS011;1339;53.304;10.406;2023-04-23T05:35:44;27.02;;;24.20;;
2658;SDS011;1339;53.304;10.406;2023-04-23T05:38:11;29.58;;;23.77;;
2658;SDS011;1339;53.304;10.406;2023-04-23T05:40:39;26.25;;;21.30;;
2658;SDS011;1339;53.304;10.406;2023-04-23T05:43:07;26.70;;;21.10;;
2658;SDS011;1339;53.304;10.406;2023-04-23T05:45:34;25.83;;;21.67;;
2658;SDS011;1339;53.304;10.406;2023-04-23T05:48:00;25.77;;;20.45;;
2658;SDS011;1339;53.304;10.406;2023-04-23T05:50:27;23.88;;;21.25;;
2658;SDS011;1339;53.304;10.406;2023-04-23T05:52:54;22.40;;;19.63;;
2658;SDS011;1339;53.304;10.406;2023-04-23T05:55:21;21.27;;;18.33;;
2658;SDS011;1339;53.304;10.406;2023-04-23T05:57:50;23.45;;;19.92;;
2658;SDS011;1339;53.304;10.406;2023-04-23T06:00:17;25.98;;;21.10;;
2658;SDS011;1339;53.304;10.406;2023-04-23T06:02:44;22.88;;;19.80;;
2658;SDS011;1339;53.304;10.406;2023-04-23T06:05:11;20.17;;;18.08;;
2658;SDS011;1339;53.304;10.406;2023-04-23T06:07:39;23.02;;;19.00;;
2658;SDS011;1339;53.304;10.406;2023-04-23T06:10:07;21.45;;;17.65;;
2658;SDS011;1339;53.304;10.406;2023-04-23T06:12:34;19.80;;;17.67;;
2658;SDS011;1339;53.304;10.406;2023-04-23T06:15:05;19.60;;;17.50;;
2658;SDS011;1339;53.304;10.406;2023-04-23T06:17:32;19.63;;;17.55;;
2658;SDS011;1339;53.304;10.406;2023-04-23T06:19:59;19.88;;;17.98;;
2658;SDS011;1339;53.304;10.406;2023-04-23T06:22:26;20.40;;;17.10;;
2658;SDS011;1339;53.304;10.406;2023-04-23T06:24:53;19.58;;;17.42;;
2658;SDS011;1339;53.304;10.406;2023-04-23T06:27:19;22.13;;;16.10;;
2658;SDS011;1339;53.304;10.406;2023-04-23T06:29:46;17.02;;;15.30;;
2658;SDS011;1339;53.304;10.406;2023-04-23T06:32:15;17.25;;;15.10;;
2658;SDS011;1339;53.304;10.406;2023-04-23T06:34:42;16.00;;;13.15;;
2658;SDS011;1339;53.304;10.406;2023-04-23T06:37:09;16.02;;;13.77;;
2658;SDS011;1339;53.304;10.406;2023-04-23T06:39:35;13.63;;;12.45;;
2658;SDS011;1339;53.304;10.406;2023-04-23T06:42:02;12.80;;;11.50;;
2658;SDS011;1339;53.304;10.406;2023-04-23T06:44:29;12.55;;;11.23;;
2658;SDS011;1339;53.304;10.406;2023-04-23T06:46:56;13.98;;;12.57;;
2658;SDS011;1339;53.304;10.406;2023-04-23T06:49:25;14.38;;;12.55;;
2658;SDS011;1339;53.304;10.406;2023-04-23T06:51:51;12.32;;;10.93;;
2658;SDS011;1339;53.304;10.406;2023-04-23T06:54:19;10.38;;;9.38;;
2658;SDS011;1339;53.304;10.406;2023-04-23T06:56:45;9.75;;;8.85;;
2658;SDS011;1339;53.304;10.406;2023-04-23T06:59:12;9.80;;;8.77;;
2658;SDS011;1339;53.304;10.406;2023-04-23T07:01:39;10.02;;;9.05;;
2658;SDS011;1339;53.304;10.406;2023-04-23T07:04:06;11.85;;;8.50;;
2658;SDS011;1339;53.304;10.406;2023-04-23T07:06:34;10.05;;;8.98;;
2658;SDS011;1339;53.304;10.406;2023-04-23T07:09:01;9.52;;;8.52;;
2658;SDS011;1339;53.304;10.406;2023-04-23T07:11:28;10.43;;;8.90;;
2658;SDS011;1339;53.304;10.406;2023-04-23T07:13:58;10.45;;;8.60;;
2658;SDS011;1339;53.304;10.406;2023-04-23T07:16:25;10.88;;;9.75;;
2658;SDS011;1339;53.304;10.406;2023-04-23T07:18:56;9.23;;;8.32;;
2658;SDS011;1339;53.304;10.406;2023-04-23T07:21:23;9.25;;;7.95;;
2658;SDS011;1339;53.304;10.406;2023-04-23T07:23:53;9.38;;;8.20;;
2658;SDS011;1339;53.304;10.406;2023-04-23T07:26:20;10.30;;;9.35;;
2658;SDS011;1339;53.304;10.406;2023-04-23T07:28:47;10.25;;;9.25;;
2658;SDS011;1339;53.304;10.406;2023-04-23T07:31:14;10.55;;;9.57;;
2658;SDS011;1339;53.304;10.406;2023-04-23T07:33:41;10.45;;;8.77;;
2658;SDS011;1339;53.304;10.406;2023-04-23T07:36:08;12.10;;;8.45;;
2658;SDS011;1339;53.304;10.406;2023-04-23T07:38:35;10.80;;;9.70;;
2658;SDS011;1339;53.304;10.406;2023-04-23T07:41:03;11.27;;;10.07;;
2658;SDS011;1339;53.304;10.406;2023-04-23T07:43:30;15.73;;;10.57;;
2658;SDS011;1339;53.304;10.406;2023-04-23T07:45:57;11.93;;;10.63;;
2658;SDS011;1339;53.304;10.406;2023-04-23T07:48:24;10.35;;;9.35;;
2658;SDS011;1339;53.304;10.406;2023-04-23T07:50:51;13.30;;;9.48;;
2658;SDS011;1339;53.304;10.406;2023-04-23T07:53:19;12.10;;;8.48;;
2658;SDS011;1339;53.304;10.406;2023-04-23T07:55:46;8.60;;;7.72;;
2658;SDS011;1339;53.304;10.406;2023-04-23T07:58:14;9.70;;;8.70;;
2658;SDS011;1339;53.304;10.406;2023-04-23T08:00:42;8.48;;;7.65;;
2658;SDS011;1339;53.304;10.406;2023-04-23T08:03:09;9.80;;;7.63;;
2658;SDS011;1339;53.304;10.406;2023-04-23T08:05:36;8.13;;;7.43;;
2658;SDS011;1339;53.304;10.406;2023-04-23T08:08:05;8.55;;;7.68;;
2658;SDS011;1339;53.304;10.406;2023-04-23T08:10:31;11.43;;;10.23;;
2658;SDS011;1339;53.304;10.406;2023-04-23T08:12:58;11.40;;;9.05;;
2658;SDS011;1339;53.304;10.406;2023-04-23T08:15:27;9.73;;;8.80;;
2658;SDS011;1339;53.304;10.406;2023-04-23T08:17:54;9.80;;;8.80;;
2658;SDS011;1339;53.304;10.406;2023-04-23T08:20:20;8.80;;;7.97;;
2658;SDS011;1339;53.304;10.406;2023-04-23T08:22:47;10.45;;;8.90;;
2658;SDS011;1339;53.304;10.406;2023-04-23T08:25:14;10.30;;;8.88;;
2658;SDS011;1339;53.304;10.406;2023-04-23T08:27:41;17.25;;;9.70;;
2658;SDS011;1339;53.304;10.406;2023-04-23T08:30:08;10.75;;;9.75;;
2658;SDS011;1339;53.304;10.406;2023-04-23T08:32:37;11.30;;;10.10;;
2658;SDS011;1339;53.304;10.406;2023-04-23T08:35:04;10.23;;;9.15;;
2658;SDS011;1339;53.304;10.406;2023-04-23T08:37:32;10.15;;;9.10;;
2658;SDS011;1339;53.304;10.406;2023-04-23T08:39:59;9.30;;;8.07;;
2658;SDS011;1339;53.304;10.406;2023-04-23T08:42:37;11.48;;;10.27;;
2658;SDS011;1339;53.304;10.406;2023-04-23T08:45:07;11.88;;;8.43;;
2658;SDS011;1339;53.304;10.406;2023-04-23T08:47:34;13.43;;;8.97;;
2658;SDS011;1339;53.304;10.406;2023-04-23T08:50:06;10.50;;;9.50;;
2658;SDS011;1339;53.304;10.406;2023-04-23T08:52:33;10.70;;;9.17;;
2658;SDS011;1339;53.304;10.406;2023-04-23T08:55:03;11.33;;;9.43;;
2658;SDS011;1339;53.304;10.406;2023-04-23T08:57:30;12.23;;;9.60;;
2658;SDS011;1339;53.304;10.406;2023-04-23T08:59:57;10.47;;;9.47;;
2658;SDS011;1339;53.304;10.406;2023-04-23T09:02:24;11.70;;;10.60;;
2658;SDS011;1339;53.304;10.406;2023-04-23T09:04:51;11.23;;;10.17;;
2658;SDS011;1339;53.304;10.406;2023-04-23T09:07:21;15.10;;;11.40;;
2658;SDS011;1339;53.304;10.406;2023-04-23T09:09:48;9.80;;;8.80;;
2658;SDS011;1339;53.304;10.406;2023-04-23T09:12:15;11.13;;;9.60;;
2658;SDS011;1339;53.304;10.406;2023-04-23T09:14:42;14.70;;;11.87;;
2658;SDS011;1339;53.304;10.406;2023-04-23T09:17:13;10.83;;;9.83;;
2658;SDS011;1339;53.304;10.406;2023-04-23T09:19:40;11.77;;;9.17;;
2658;SDS011;1339;53.304;10.406;2023-04-23T09:22:07;11.63;;;10.53;;
2658;SDS011;1339;53.304;10.406;2023-04-23T09:24:35;12.50;;;11.33;;
2658;SDS011;1339;53.304;10.406;2023-04-23T09:27:02;12.13;;;10.60;;
2658;SDS011;1339;53.304;10.406;2023-04-23T09:29:29;11.93;;;10.83;;
2658;SDS011;1339;53.304;10.406;2023-04-23T09:32:05;12.77;;;11.57;;
2658;SDS011;1339;53.304;10.406;2023-04-23T09:34:33;10.33;;;9.40;;
2658;SDS011;1339;53.304;10.406;2023-04-23T09:37:01;11.70;;;10.60;;
2658;SDS011;1339;53.304;10.406;2023-04-23T09:39:29;10.70;;;9.80;;
2658;SDS011;1339;53.304;10.406;2023-04-23T09:42:01;11.80;;;10.50;;
2658;SDS011;1339;53.304;10.406;2023-04-23T09:44:30;10.97;;;9.87;;
2658;SDS011;1339;53.304;10.406;2023-04-23T09:46:57;11.67;;;9.23;;
2658;SDS011;1339;53.304;10.406;2023-04-23T09:49:31;11.13;;;10.03;;
2658;SDS011;1339;53.304;10.406;2023-04-23T09:51:58;11.00;;;9.90;;
2658;SDS011;1339;53.304;10.406;2023-04-23T09:54:31;11.10;;;10.10;;
2658;SDS011;1339;53.304;10.406;2023-04-23T09:56:59;9.23;;;8.40;;
2658;SDS011;1339;53.304;10.406;2023-04-23T09:59:29;14.03;;;10.37;;
2658;SDS011;1339;53.304;10.406;2023-04-23T10:01:57;10.03;;;9.03;;
2658;SDS011;1339;53.304;10.406;2023-04-23T10:04:27;8.57;;;7.70;;
2658;SDS011;1339;53.304;10.406;2023-04-23T10:06:54;8.23;;;7.43;;
2658;SDS011;1339;53.304;10.406;2023-04-23T10:09:22;7.70;;;6.50;;
2658;SDS011;1339;53.304;10.406;2023-04-23T10:11:50;7.10;;;6.47;;
2658;SDS011;1339;53.304;10.406;2023-04-23T10:14:19;8.67;;;7.87;;
2658;SDS011;1339;53.304;10.406;2023-04-23T10:16:46;9.30;;;8.40;;
2658;SDS011;1339;53.304;10.406;2023-04-23T10:19:13;8.63;;;7.83;;
2658;SDS011;1339;53.304;10.406;2023-04-23T10:21:40;8.30;;;7.50;;
2658;SDS011;1339;53.304;10.406;2023-04-23T10:24:08;8.70;;;7.90;;
2658;SDS011;1339;53.304;10.406;2023-04-23T10:26:35;8.30;;;7.60;;
2658;SDS011;1339;53.304;10.406;2023-04-23T10:29:04;7.03;;;6.37;;
2658;SDS011;1339;53.304;10.406;2023-04-23T10:31:35;8.10;;;7.40;;
2658;SDS011;1339;53.304;10.406;2023-04-23T10:34:02;9.40;;;8.50;;
2658;SDS011;1339;53.304;10.406;2023-04-23T10:36:30;9.50;;;8.00;;
2658;SDS011;1339;53.304;10.406;2023-04-23T10:38:57;9.20;;;8.40;;
2658;SDS011;1339;53.304;10.406;2023-04-23T10:41:28;11.07;;;10.13;;
2658;SDS011;1339;53.304;10.406;2023-04-23T10:43:57;11.13;;;10.07;;
2658;SDS011;1339;53.304;10.406;2023-04-23T10:46:27;10.10;;;8.77;;
2658;SDS011;1339;53.304;10.406;2023-04-23T10:49:05;10.17;;;9.33;;
2658;SDS011;1339;53.304;10.406;2023-04-23T10:51:38;10.37;;;8.90;;
2658;SDS011;1339;53.304;10.406;2023-04-23T10:54:06;11.83;;;10.73;;
2658;SDS011;1339;53.304;10.406;2023-04-23T10:56:34;11.23;;;10.10;;
2658;SDS011;1339;53.304;10.406;2023-04-23T10:59:04;10.80;;;9.90;;
2658;SDS011;1339;53.304;10.406;2023-04-23T11:01:31;9.00;;;8.20;;
2658;SDS011;1339;53.304;10.406;2023-04-23T11:03:58;7.87;;;7.27;;
2658;SDS011;1339;53.304;10.406;2023-04-23T11:06:55;8.90;;;8.20;;
2658;SDS011;1339;53.304;10.406;2023-04-23T11:09:30;11.70;;;10.00;;
2658;SDS011;1339;53.304;10.406;2023-04-23T11:11:57;8.60;;;7.90;;
2658;SDS011;1339;53.304;10.406;2023-04-23T11:14:42;8.07;;;7.37;;
2658;SDS011;1339;53.304;10.406;2023-04-23T11:17:11;7.70;;;6.90;;
2658;SDS011;1339;53.304;10.406;2023-04-23T11:19:40;6.60;;;5.70;;
2658;SDS011;1339;53.304;10.406;2023-04-23T11:22:13;5.77;;;5.20;;
2658;SDS011;1339;53.304;10.406;2023-04-23T11:24:41;5.77;;;5.27;;
2658;SDS011;1339;53.304;10.406;2023-04-23T11:27:10;6.73;;;6.13;;
2658;SDS011;1339;53.304;10.406;2023-04-23T11:29:38;6.50;;;6.00;;
2658;SDS011;1339;53.304;10.406;2023-04-23T11:32:05;5.57;;;4.80;;
2658;SDS011;1339;53.304;10.406;2023-04-23T11:34:35;5.17;;;4.77;;
2658;SDS011;1339;53.304;10.406;2023-04-23T11:37:02;5.33;;;4.80;;
2658;SDS011;1339;53.304;10.406;2023-04-23T11:39:31;5.70;;;5.20;;
2658;SDS011;1339;53.304;10.406;2023-04-23T11:41:58;4.73;;;4.23;;
2658;SDS011;1339;53.304;10.406;2023-04-23T11:44:27;4.53;;;4.13;;
2658;SDS011;1339;53.304;10.406;2023-04-23T11:46:53;6.73;;;4.07;;
2658;SDS011;1339;53.304;10.406;2023-04-23T11:49:20;5.00;;;4.57;;
2658;SDS011;1339;53.304;10.406;2023-04-23T11:51:47;7.60;;;5.43;;
2658;SDS011;1339;53.304;10.406;2023-04-23T11:54:14;4.77;;;4.37;;
2658;SDS011;1339;53.304;10.406;2023-04-23T11:56:43;5.13;;;4.73;;
2658;SDS011;1339;53.304;10.406;2023-04-23T11:59:10;5.10;;;4.70;;
2658;SDS011;1339;53.304;10.406;2023-04-23T12:01:41;4.57;;;4.27;;
2658;SDS011;1339;53.304;10.406;2023-04-23T12:04:08;5.03;;;4.60;;
2658;SDS011;1339;53.304;10.406;2023-04-23T12:06:35;4.90;;;4.50;;
2658;SDS011;1339;53.304;10.406;2023-04-23T12:09:02;4.90;;;4.50;;
2658;SDS011;1339;53.304;10.406;2023-04-23T12:11:29;5.40;;;4.90;;
2658;SDS011;1339;53.304;10.406;2023-04-23T12:13:58;4.67;;;4.27;;
2658;SDS011;1339;53.304;10.406;2023-04-23T12:16:32;5.80;;;4.80;;
2658;SDS011;1339;53.304;10.406;2023-04-23T12:18:59;5.87;;;5.43;;
2658;SDS011;1339;53.304;10.406;2023-04-23T12:21:26;5.17;;;4.60;;
2658;SDS011;1339;53.304;10.406;2023-04-23T12:23:54;4.80;;;4.40;;
2658;SDS011;1339;53.304;10.406;2023-04-23T12:26:21;5.10;;;4.30;;
2658;SDS011;1339;53.304;10.406;2023-04-23T12:28:49;5.00;;;4.60;;
2658;SDS011;1339;53.304;10.406;2023-04-23T12:31:21;5.13;;;4.70;;
2658;SDS011;1339;53.304;10.406;2023-04-23T12:33:52;4.60;;;4.20;;
2658;SDS011;1339;53.304;10.406;2023-04-23T12:36:19;4.60;;;4.20;;
2658;SDS011;1339;53.304;10.406;2023-04-23T12:38:51;4.80;;;4.40;;
2658;SDS011;1339;53.304;10.406;2023-04-23T12:41:18;5.20;;;4.80;;
2658;SDS011;1339;53.304;10.406;2023-04-23T12:43:45;5.13;;;4.70;;
2658;SDS011;1339;53.304;10.406;2023-04-23T12:46:14;5.40;;;3.90;;
2658;SDS011;1339;53.304;10.406;2023-04-23T12:48:42;4.90;;;4.50;;
2658;SDS011;1339;53.304;10.406;2023-04-23T12:51:09;5.83;;;4.50;;
2658;SDS011;1339;53.304;10.406;2023-04-23T12:53:36;5.00;;;3.97;;
2658;SDS011;1339;53.304;10.406;2023-04-23T12:56:03;3.80;;;3.50;;
2658;SDS011;1339;53.304;10.406;2023-04-23T12:58:30;3.80;;;3.50;;
2658;SDS011;1339;53.304;10.406;2023-04-23T13:00:57;4.20;;;3.90;;
2658;SDS011;1339;53.304;10.406;2023-04-23T13:03:24;3.80;;;3.50;;
2658;SDS011;1339;53.304;10.406;2023-04-23T13:05:52;3.83;;;3.53;;
2658;SDS011;1339;53.304;10.406;2023-04-23T13:08:19;4.87;;;4.40;;
2658;SDS011;1339;53.304;10.406;2023-04-23T13:10:46;4.00;;;3.60;;
2658;SDS011;1339;53.304;10.406;2023-04-23T13:13:14;3.67;;;3.37;;
2658;SDS011;1339;53.304;10.406;2023-04-23T13:15:41;4.20;;;3.17;;
2658;SDS011;1339;53.304;10.406;2023-04-23T13:18:08;3.50;;;3.17;;
2658;SDS011;1339;53.304;10.406;2023-04-23T13:20:35;3.53;;;3.23;;
2658;SDS011;1339;53.304;10.406;2023-04-23T13:23:03;3.17;;;2.87;;
2658;SDS011;1339;53.304;10.406;2023-04-23T13:25:32;2.90;;;2.70;;
2658;SDS011;1339;53.304;10.406;2023-04-23T13:28:00;4.23;;;3.53;;
2658;SDS011;1339;53.304;10.406;2023-04-23T13:30:26;3.60;;;3.30;;
2658;SDS011;1339;53.304;10.406;2023-04-23T13:32:53;3.27;;;3.03;;
2658;SDS011;1339;53.304;10.406;2023-04-23T13:35:21;2.83;;;2.63;;
2658;SDS011;1339;53.304;10.406;2023-04-23T13:37:48;3.33;;;3.13;;
2658;SDS011;1339;53.304;10.406;2023-04-23T13:40:16;2.63;;;2.50;;
2658;SDS011;1339;53.304;10.406;2023-04-23T13:42:43;3.10;;;2.87;;
2658;SDS011;1339;53.304;10.406;2023-04-23T13:45:12;3.23;;;3.00;;
2658;SDS011;1339;53.304;10.406;2023-04-23T13:47:39;5.10;;;3.70;;
2658;SDS011;1339;53.304;10.406;2023-04-23T13:50:06;3.10;;;2.90;;
2658;SDS011;1339;53.304;10.406;2023-04-23T13:52:34;5.27;;;2.93;;
2658;SDS011;1339;53.304;10.406;2023-04-23T13:55:03;3.73;;;3.30;;
2658;SDS011;1339;53.304;10.406;2023-04-23T13:57:32;3.13;;;2.60;;
2658;SDS011;1339;53.304;10.406;2023-04-23T13:59:59;3.47;;;3.17;;
2658;SDS011;1339;53.304;10.406;2023-04-23T14:02:26;3.00;;;2.80;;
2658;SDS011;1339;53.304;10.406;2023-04-23T14:04:53;2.90;;;2.70;;
2658;SDS011;1339;53.304;10.406;2023-04-23T14:07:21;6.90;;;3.37;;
2658;SDS011;1339;53.304;10.406;2023-04-23T14:09:48;3.40;;;3.07;;
2658;SDS011;1339;53.304;10.406;2023-04-23T14:12:16;3.60;;;3.30;;
2658;SDS011;1339;53.304;10.406;2023-04-23T14:14:45;2.87;;;2.60;;
2658;SDS011;1339;53.304;10.406;2023-04-23T14:17:11;3.57;;;3.03;;
2658;SDS011;1339;53.304;10.406;2023-04-23T14:19:38;3.43;;;3.20;;
2658;SDS011;1339;53.304;10.406;2023-04-23T14:22:05;3.73;;;3.10;;
2658;SDS011;1339;53.304;10.406;2023-04-23T14:24:33;3.00;;;2.80;;
2658;SDS011;1339;53.304;10.406;2023-04-23T14:27:00;3.10;;;2.77;;
2658;SDS011;1339;53.304;10.406;2023-04-23T14:29:33;3.73;;;3.20;;
2658;SDS011;1339;53.304;10.406;2023-04-23T14:32:03;3.47;;;2.63;;
2658;SDS011;1339;53.304;10.406;2023-04-23T14:34:30;2.70;;;2.20;;
2658;SDS011;1339;53.304;10.406;2023-04-23T14:36:58;3.27;;;2.40;;
2658;SDS011;1339;53.304;10.406;2023-04-23T14:39:25;2.43;;;2.33;;
2658;SDS011;1339;53.304;10.406;2023-04-23T14:41:53;2.70;;;2.50;;
2658;SDS011;1339;53.304;10.406;2023-04-23T14:44:23;4.60;;;2.60;;
2658;SDS011;1339;53.304;10.406;2023-04-23T14:46:50;3.60;;;3.40;;
2658;SDS011;1339;53.304;10.406;2023-04-23T14:49:19;3.00;;;2.80;;
2658;SDS011;1339;53.304;10.406;2023-04-23T14:51:46;2.60;;;2.40;;
2658;SDS011;1339;53.304;10.406;2023-04-23T14:54:14;4.20;;;2.77;;